sensor_id;sensor_type;location;lat;lon;timestamp;P1;durP1;ratioP1;P2;durP2;ratioP2
62990;SDS011;49084;48.204;16.202;2022-11-15T00:01:24;106.30;;;33.47;;
62990;SDS011;49084;48.204;16.202;2022-11-15T00:03:52;102.88;;;35.22;;
62990;SDS011;49084;48.204;16.202;2022-11-15T00:06:18;108.10;;;35.17;;
62990;SDS011;49084;48.204;16.202;2022-11-15T00:08:44;101.85;;;33.50;;
62990;SDS011;49084;48.204;16.202;2022-11-15T00:11:10;108.47;;;34.50;;
62990;SDS011;49084;48.204;16.202;2022-11-15T00:13:37;112.60;;;35.10;;
62990;SDS011;49084;48.204;16.202;2022-11-15T00:16:03;110.70;;;33.50;;
62990;SDS011;49084;48.204;16.202;2022-11-15T00:18:29;110.72;;;35.00;;
62990;SDS011;49084;48.204;16.202;2022-11-15T00:20:56;103.47;;;34.20;;
62990;SDS011;49084;48.204;16.202;2022-11-15T00:23:27;96.00;;;33.85;;
62990;SDS011;49084;48.204;16.202;2022-11-15T00:25:56;103.95;;;34.97;;
62990;SDS011;49084;48.204;16.202;2022-11-15T00:28:23;105.65;;;33.50;;
62990;SDS011;49084;48.204;16.202;2022-11-15T00:30:49;110.25;;;34.08;;
62990;SDS011;49084;48.204;16.202;2022-11-15T00:33:15;108.18;;;36.30;;
62990;SDS011;49084;48.204;16.202;2022-11-15T00:35:41;104.50;;;34.67;;
62990;SDS011;49084;48.204;16.202;2022-11-15T00:38:06;120.45;;;35.83;;
62990;SDS011;49084;48.204;16.202;2022-11-15T00:40:32;112.53;;;34.97;;
62990;SDS011;49084;48.204;16.202;2022-11-15T00:42:58;109.18;;;35.75;;
62990;SDS011;49084;48.204;16.202;2022-11-15T00:45:24;102.88;;;34.50;;
62990;SDS011;49084;48.204;16.202;2022-11-15T00:47:50;111.55;;;35.40;;
62990;SDS011;49084;48.204;16.202;2022-11-15T00:50:16;110.13;;;36.15;;
62990;SDS011;49084;48.204;16.202;2022-11-15T00:52:42;122.18;;;36.13;;
62990;SDS011;49084;48.204;16.202;2022-11-15T00:55:18;124.25;;;36.40;;
62990;SDS011;49084;48.204;16.202;2022-11-15T00:57:44;122.72;;;37.13;;
62990;SDS011;49084;48.204;16.202;2022-11-15T01:00:10;104.10;;;35.65;;
62990;SDS011;49084;48.204;16.202;2022-11-15T01:02:36;100.30;;;34.63;;
62990;SDS011;49084;48.204;16.202;2022-11-15T01:05:02;103.50;;;34.50;;
62990;SDS011;49084;48.204;16.202;2022-11-15T01:07:28;97.97;;;32.95;;
62990;SDS011;49084;48.204;16.202;2022-11-15T01:09:54;97.20;;;32.67;;
62990;SDS011;49084;48.204;16.202;2022-11-15T01:12:19;112.50;;;34.70;;
62990;SDS011;49084;48.204;16.202;2022-11-15T01:14:45;100.05;;;33.72;;
62990;SDS011;49084;48.204;16.202;2022-11-15T01:17:11;111.28;;;32.60;;
62990;SDS011;49084;48.204;16.202;2022-11-15T01:19:36;101.70;;;32.55;;
62990;SDS011;49084;48.204;16.202;2022-11-15T01:22:02;93.95;;;31.48;;
62990;SDS011;49084;48.204;16.202;2022-11-15T01:24:27;105.38;;;33.10;;
62990;SDS011;49084;48.204;16.202;2022-11-15T01:26:53;96.18;;;29.80;;
62990;SDS011;49084;48.204;16.202;2022-11-15T01:29:19;103.70;;;31.73;;
62990;SDS011;49084;48.204;16.202;2022-11-15T01:31:44;94.35;;;31.02;;
62990;SDS011;49084;48.204;16.202;2022-11-15T01:34:10;96.60;;;31.38;;
62990;SDS011;49084;48.204;16.202;2022-11-15T01:36:36;95.65;;;31.33;;
62990;SDS011;49084;48.204;16.202;2022-11-15T01:39:01;102.03;;;31.42;;
62990;SDS011;49084;48.204;16.202;2022-11-15T01:41:31;94.15;;;31.65;;
62990;SDS011;49084;48.204;16.202;2022-11-15T01:44:28;95.78;;;31.00;;
62990;SDS011;49084;48.204;16.202;2022-11-15T01:46:55;92.18;;;30.98;;
62990;SDS011;49084;48.204;16.202;2022-11-15T01:49:22;92.00;;;29.95;;
62990;SDS011;49084;48.204;16.202;2022-11-15T01:51:49;97.30;;;30.23;;
62990;SDS011;49084;48.204;16.202;2022-11-15T01:54:16;94.35;;;31.02;;
62990;SDS011;49084;48.204;16.202;2022-11-15T01:57:03;101.65;;;31.63;;
62990;SDS011;49084;48.204;16.202;2022-11-15T01:59:33;100.40;;;31.35;;
62990;SDS011;49084;48.204;16.202;2022-11-15T02:01:59;101.00;;;30.50;;
62990;SDS011;49084;48.204;16.202;2022-11-15T02:06:52;104.35;;;31.90;;
62990;SDS011;49084;48.204;16.202;2022-11-15T02:09:18;108.03;;;32.63;;
62990;SDS011;49084;48.204;16.202;2022-11-15T02:11:44;98.07;;;30.98;;
62990;SDS011;49084;48.204;16.202;2022-11-15T02:14:12;101.15;;;32.75;;
62990;SDS011;49084;48.204;16.202;2022-11-15T02:16:44;107.55;;;33.72;;
62990;SDS011;49084;48.204;16.202;2022-11-15T02:19:36;93.40;;;31.65;;
62990;SDS011;49084;48.204;16.202;2022-11-15T02:25:10;97.20;;;32.53;;
62990;SDS011;49084;48.204;16.202;2022-11-15T02:36:25;80.22;;;28.27;;
62990;SDS011;49084;48.204;16.202;2022-11-15T02:41:40;69.85;;;27.27;;
62990;SDS011;49084;48.204;16.202;2022-11-15T02:44:33;68.10;;;24.73;;
62990;SDS011;49084;48.204;16.202;2022-11-15T02:47:04;65.60;;;25.98;;
62990;SDS011;49084;48.204;16.202;2022-11-15T02:49:44;60.83;;;25.05;;
62990;SDS011;49084;48.204;16.202;2022-11-15T02:52:16;62.97;;;25.55;;
62990;SDS011;49084;48.204;16.202;2022-11-15T02:54:52;63.15;;;25.13;;
62990;SDS011;49084;48.204;16.202;2022-11-15T02:57:44;61.92;;;24.90;;
62990;SDS011;49084;48.204;16.202;2022-11-15T03:00:19;64.10;;;25.10;;
62990;SDS011;49084;48.204;16.202;2022-11-15T03:05:46;55.47;;;23.13;;
62990;SDS011;49084;48.204;16.202;2022-11-15T03:08:26;56.15;;;24.40;;
62990;SDS011;49084;48.204;16.202;2022-11-15T03:19:14;52.67;;;22.95;;
62990;SDS011;49084;48.204;16.202;2022-11-15T03:21:44;56.88;;;23.98;;
62990;SDS011;49084;48.204;16.202;2022-11-15T03:24:12;56.38;;;23.23;;
62990;SDS011;49084;48.204;16.202;2022-11-15T03:26:41;56.38;;;23.13;;
62990;SDS011;49084;48.204;16.202;2022-11-15T03:29:10;58.22;;;23.85;;
62990;SDS011;49084;48.204;16.202;2022-11-15T03:31:44;60.55;;;24.63;;
62990;SDS011;49084;48.204;16.202;2022-11-15T03:35:02;59.28;;;25.40;;
62990;SDS011;49084;48.204;16.202;2022-11-15T03:37:35;68.63;;;26.17;;
62990;SDS011;49084;48.204;16.202;2022-11-15T03:40:07;60.25;;;26.38;;
62990;SDS011;49084;48.204;16.202;2022-11-15T03:42:46;66.18;;;23.90;;
62990;SDS011;49084;48.204;16.202;2022-11-15T03:45:25;59.90;;;25.67;;
62990;SDS011;49084;48.204;16.202;2022-11-15T03:48:01;56.88;;;23.05;;
62990;SDS011;49084;48.204;16.202;2022-11-15T03:50:32;57.15;;;23.92;;
62990;SDS011;49084;48.204;16.202;2022-11-15T03:52:59;63.08;;;25.25;;
62990;SDS011;49084;48.204;16.202;2022-11-15T03:55:25;63.30;;;25.98;;
62990;SDS011;49084;48.204;16.202;2022-11-15T03:57:52;57.00;;;25.83;;
62990;SDS011;49084;48.204;16.202;2022-11-15T04:00:21;57.95;;;25.77;;
62990;SDS011;49084;48.204;16.202;2022-11-15T04:02:47;64.95;;;26.45;;
62990;SDS011;49084;48.204;16.202;2022-11-15T04:05:12;73.50;;;26.90;;
62990;SDS011;49084;48.204;16.202;2022-11-15T04:07:38;77.57;;;27.95;;
62990;SDS011;49084;48.204;16.202;2022-11-15T04:10:04;74.00;;;27.08;;
62990;SDS011;49084;48.204;16.202;2022-11-15T04:12:33;72.95;;;28.27;;
62990;SDS011;49084;48.204;16.202;2022-11-15T04:15:04;64.53;;;25.77;;
62990;SDS011;49084;48.204;16.202;2022-11-15T04:17:36;71.80;;;27.88;;
62990;SDS011;49084;48.204;16.202;2022-11-15T04:20:10;64.35;;;27.35;;
62990;SDS011;49084;48.204;16.202;2022-11-15T04:22:59;70.63;;;26.88;;
62990;SDS011;49084;48.204;16.202;2022-11-15T04:25:44;71.93;;;27.48;;
62990;SDS011;49084;48.204;16.202;2022-11-15T04:28:12;75.05;;;26.10;;
62990;SDS011;49084;48.204;16.202;2022-11-15T04:30:38;68.70;;;25.90;;
62990;SDS011;49084;48.204;16.202;2022-11-15T04:33:04;66.72;;;26.58;;
62990;SDS011;49084;48.204;16.202;2022-11-15T04:35:29;79.47;;;28.35;;
62990;SDS011;49084;48.204;16.202;2022-11-15T04:37:56;73.82;;;28.65;;
62990;SDS011;49084;48.204;16.202;2022-11-15T04:40:22;75.57;;;28.58;;
62990;SDS011;49084;48.204;16.202;2022-11-15T04:42:48;74.57;;;27.52;;
62990;SDS011;49084;48.204;16.202;2022-11-15T04:45:13;72.53;;;27.25;;
62990;SDS011;49084;48.204;16.202;2022-11-15T04:47:39;77.13;;;27.08;;
62990;SDS011;49084;48.204;16.202;2022-11-15T04:50:05;76.57;;;27.83;;
62990;SDS011;49084;48.204;16.202;2022-11-15T04:52:31;86.03;;;28.33;;
62990;SDS011;49084;48.204;16.202;2022-11-15T04:54:57;74.28;;;28.77;;
62990;SDS011;49084;48.204;16.202;2022-11-15T04:57:22;100.68;;;28.50;;
62990;SDS011;49084;48.204;16.202;2022-11-15T04:59:48;77.75;;;28.50;;
62990;SDS011;49084;48.204;16.202;2022-11-15T05:02:14;89.55;;;30.10;;
62990;SDS011;49084;48.204;16.202;2022-11-15T05:04:39;83.88;;;28.23;;
62990;SDS011;49084;48.204;16.202;2022-11-15T05:07:05;97.20;;;30.83;;
62990;SDS011;49084;48.204;16.202;2022-11-15T05:09:30;95.25;;;29.13;;
62990;SDS011;49084;48.204;16.202;2022-11-15T05:11:56;95.20;;;29.45;;
62990;SDS011;49084;48.204;16.202;2022-11-15T05:14:22;101.10;;;31.20;;
62990;SDS011;49084;48.204;16.202;2022-11-15T05:16:47;80.05;;;27.80;;
62990;SDS011;49084;48.204;16.202;2022-11-15T05:19:13;96.82;;;29.70;;
62990;SDS011;49084;48.204;16.202;2022-11-15T05:21:39;89.05;;;28.80;;
62990;SDS011;49084;48.204;16.202;2022-11-15T05:24:05;77.75;;;27.92;;
62990;SDS011;49084;48.204;16.202;2022-11-15T05:26:31;91.70;;;29.05;;
62990;SDS011;49084;48.204;16.202;2022-11-15T05:28:57;97.40;;;29.02;;
62990;SDS011;49084;48.204;16.202;2022-11-15T05:31:24;82.75;;;26.67;;
62990;SDS011;49084;48.204;16.202;2022-11-15T05:33:51;85.88;;;28.70;;
62990;SDS011;49084;48.204;16.202;2022-11-15T05:36:29;83.03;;;27.20;;
62990;SDS011;49084;48.204;16.202;2022-11-15T05:39:16;79.18;;;27.52;;
62990;SDS011;49084;48.204;16.202;2022-11-15T05:41:43;89.13;;;27.77;;
62990;SDS011;49084;48.204;16.202;2022-11-15T05:44:13;80.25;;;27.95;;
62990;SDS011;49084;48.204;16.202;2022-11-15T05:46:41;84.53;;;26.17;;
62990;SDS011;49084;48.204;16.202;2022-11-15T05:49:09;75.50;;;27.30;;
62990;SDS011;49084;48.204;16.202;2022-11-15T05:51:37;77.95;;;27.42;;
62990;SDS011;49084;48.204;16.202;2022-11-15T05:54:04;92.78;;;26.90;;
62990;SDS011;49084;48.204;16.202;2022-11-15T05:56:30;82.90;;;26.83;;
62990;SDS011;49084;48.204;16.202;2022-11-15T05:58:56;72.90;;;25.50;;
62990;SDS011;49084;48.204;16.202;2022-11-15T06:01:24;86.15;;;26.75;;
62990;SDS011;49084;48.204;16.202;2022-11-15T06:03:51;75.22;;;26.48;;
62990;SDS011;49084;48.204;16.202;2022-11-15T06:06:17;74.72;;;25.77;;
62990;SDS011;49084;48.204;16.202;2022-11-15T06:08:42;77.25;;;26.73;;
62990;SDS011;49084;48.204;16.202;2022-11-15T06:11:08;67.85;;;23.23;;
62990;SDS011;49084;48.204;16.202;2022-11-15T06:13:34;74.13;;;25.85;;
62990;SDS011;49084;48.204;16.202;2022-11-15T06:15:59;73.88;;;25.08;;
62990;SDS011;49084;48.204;16.202;2022-11-15T06:18:25;80.90;;;25.38;;
62990;SDS011;49084;48.204;16.202;2022-11-15T06:20:51;76.68;;;26.15;;
62990;SDS011;49084;48.204;16.202;2022-11-15T06:23:17;78.75;;;25.80;;
62990;SDS011;49084;48.204;16.202;2022-11-15T06:25:43;78.95;;;26.05;;
62990;SDS011;49084;48.204;16.202;2022-11-15T06:28:08;81.18;;;26.20;;
62990;SDS011;49084;48.204;16.202;2022-11-15T06:30:34;88.72;;;27.65;;
62990;SDS011;49084;48.204;16.202;2022-11-15T06:33:00;82.85;;;27.67;;
62990;SDS011;49084;48.204;16.202;2022-11-15T06:35:27;83.28;;;26.45;;
62990;SDS011;49084;48.204;16.202;2022-11-15T06:37:53;83.95;;;27.52;;
62990;SDS011;49084;48.204;16.202;2022-11-15T06:40:18;85.72;;;26.25;;
62990;SDS011;49084;48.204;16.202;2022-11-15T06:42:44;83.88;;;26.35;;
62990;SDS011;49084;48.204;16.202;2022-11-15T06:45:10;81.45;;;27.13;;
62990;SDS011;49084;48.204;16.202;2022-11-15T06:47:35;86.18;;;26.40;;
62990;SDS011;49084;48.204;16.202;2022-11-15T06:50:08;86.88;;;27.13;;
62990;SDS011;49084;48.204;16.202;2022-11-15T06:52:34;88.85;;;28.55;;
62990;SDS011;49084;48.204;16.202;2022-11-15T06:55:00;85.75;;;26.45;;
62990;SDS011;49084;48.204;16.202;2022-11-15T06:57:25;92.78;;;27.10;;
62990;SDS011;49084;48.204;16.202;2022-11-15T06:59:51;92.90;;;26.80;;
62990;SDS011;49084;48.204;16.202;2022-11-15T07:02:16;84.47;;;27.50;;
62990;SDS011;49084;48.204;16.202;2022-11-15T07:04:42;90.85;;;27.25;;
62990;SDS011;49084;48.204;16.202;2022-11-15T07:07:09;77.22;;;26.48;;
62990;SDS011;49084;48.204;16.202;2022-11-15T07:09:34;77.95;;;25.85;;
62990;SDS011;49084;48.204;16.202;2022-11-15T07:12:00;91.03;;;30.25;;
62990;SDS011;49084;48.204;16.202;2022-11-15T07:14:26;87.65;;;27.02;;
62990;SDS011;49084;48.204;16.202;2022-11-15T07:16:51;96.55;;;28.65;;
62990;SDS011;49084;48.204;16.202;2022-11-15T07:19:17;88.63;;;27.60;;
62990;SDS011;49084;48.204;16.202;2022-11-15T07:21:42;104.47;;;28.98;;
62990;SDS011;49084;48.204;16.202;2022-11-15T07:24:08;96.22;;;29.83;;
62990;SDS011;49084;48.204;16.202;2022-11-15T07:26:34;92.75;;;26.80;;
62990;SDS011;49084;48.204;16.202;2022-11-15T07:28:59;91.30;;;27.00;;
62990;SDS011;49084;48.204;16.202;2022-11-15T07:31:25;104.57;;;27.92;;
62990;SDS011;49084;48.204;16.202;2022-11-15T07:33:51;95.50;;;27.73;;
62990;SDS011;49084;48.204;16.202;2022-11-15T07:36:16;99.30;;;29.52;;
62990;SDS011;49084;48.204;16.202;2022-11-15T07:38:42;94.30;;;28.58;;
62990;SDS011;49084;48.204;16.202;2022-11-15T07:41:08;102.22;;;30.40;;
62990;SDS011;49084;48.204;16.202;2022-11-15T07:43:34;104.43;;;29.35;;
62990;SDS011;49084;48.204;16.202;2022-11-15T07:46:09;104.60;;;28.15;;
62990;SDS011;49084;48.204;16.202;2022-11-15T07:48:38;90.68;;;28.90;;
62990;SDS011;49084;48.204;16.202;2022-11-15T07:51:12;85.32;;;27.35;;
62990;SDS011;49084;48.204;16.202;2022-11-15T07:53:42;91.25;;;28.00;;
62990;SDS011;49084;48.204;16.202;2022-11-15T07:56:09;75.10;;;24.50;;
62990;SDS011;49084;48.204;16.202;2022-11-15T07:58:37;77.07;;;25.97;;
62990;SDS011;49084;48.204;16.202;2022-11-15T08:01:06;77.82;;;24.48;;
62990;SDS011;49084;48.204;16.202;2022-11-15T08:03:33;70.97;;;22.92;;
62990;SDS011;49084;48.204;16.202;2022-11-15T08:05:59;73.72;;;25.55;;
62990;SDS011;49084;48.204;16.202;2022-11-15T08:08:25;72.43;;;23.85;;
62990;SDS011;49084;48.204;16.202;2022-11-15T08:10:51;71.15;;;24.75;;
62990;SDS011;49084;48.204;16.202;2022-11-15T08:13:16;85.15;;;26.98;;
62990;SDS011;49084;48.204;16.202;2022-11-15T08:15:42;81.47;;;26.67;;
62990;SDS011;49084;48.204;16.202;2022-11-15T08:18:12;85.43;;;25.40;;
62990;SDS011;49084;48.204;16.202;2022-11-15T08:20:39;92.00;;;29.50;;
62990;SDS011;49084;48.204;16.202;2022-11-15T08:23:06;100.35;;;27.85;;
62990;SDS011;49084;48.204;16.202;2022-11-15T08:25:33;83.18;;;26.15;;
62990;SDS011;49084;48.204;16.202;2022-11-15T08:28:00;75.43;;;25.70;;
62990;SDS011;49084;48.204;16.202;2022-11-15T08:30:27;74.43;;;24.88;;
62990;SDS011;49084;48.204;16.202;2022-11-15T08:32:55;79.53;;;25.35;;
62990;SDS011;49084;48.204;16.202;2022-11-15T08:35:22;78.20;;;25.13;;
62990;SDS011;49084;48.204;16.202;2022-11-15T08:37:48;64.32;;;22.83;;
62990;SDS011;49084;48.204;16.202;2022-11-15T08:40:14;68.47;;;23.30;;
62990;SDS011;49084;48.204;16.202;2022-11-15T08:42:40;61.92;;;22.20;;
62990;SDS011;49084;48.204;16.202;2022-11-15T08:45:07;70.32;;;23.85;;
62990;SDS011;49084;48.204;16.202;2022-11-15T08:47:33;72.03;;;23.95;;
62990;SDS011;49084;48.204;16.202;2022-11-15T08:49:59;60.22;;;21.98;;
62990;SDS011;49084;48.204;16.202;2022-11-15T08:52:25;73.45;;;24.75;;
62990;SDS011;49084;48.204;16.202;2022-11-15T08:54:51;66.93;;;23.73;;
62990;SDS011;49084;48.204;16.202;2022-11-15T08:57:17;65.38;;;22.83;;
62990;SDS011;49084;48.204;16.202;2022-11-15T08:59:43;77.88;;;25.33;;
62990;SDS011;49084;48.204;16.202;2022-11-15T09:02:12;74.55;;;24.67;;
62990;SDS011;49084;48.204;16.202;2022-11-15T09:04:40;69.35;;;24.00;;
62990;SDS011;49084;48.204;16.202;2022-11-15T09:07:07;69.18;;;23.02;;
62990;SDS011;49084;48.204;16.202;2022-11-15T09:09:34;70.93;;;24.30;;
62990;SDS011;49084;48.204;16.202;2022-11-15T09:12:00;70.03;;;23.63;;
62990;SDS011;49084;48.204;16.202;2022-11-15T09:14:25;81.70;;;24.73;;
62990;SDS011;49084;48.204;16.202;2022-11-15T09:16:51;75.30;;;24.98;;
62990;SDS011;49084;48.204;16.202;2022-11-15T09:19:17;80.07;;;26.90;;
62990;SDS011;49084;48.204;16.202;2022-11-15T09:21:42;82.32;;;26.40;;
62990;SDS011;49084;48.204;16.202;2022-11-15T09:24:08;79.57;;;25.33;;
62990;SDS011;49084;48.204;16.202;2022-11-15T09:26:34;78.50;;;23.98;;
62990;SDS011;49084;48.204;16.202;2022-11-15T09:28:59;79.25;;;24.88;;
62990;SDS011;49084;48.204;16.202;2022-11-15T09:31:26;78.97;;;24.00;;
62990;SDS011;49084;48.204;16.202;2022-11-15T09:33:52;83.90;;;26.67;;
62990;SDS011;49084;48.204;16.202;2022-11-15T09:36:18;89.03;;;26.42;;
62990;SDS011;49084;48.204;16.202;2022-11-15T09:38:43;95.40;;;27.80;;
62990;SDS011;49084;48.204;16.202;2022-11-15T09:46:51;91.07;;;28.75;;
62990;SDS011;49084;48.204;16.202;2022-11-15T09:49:34;104.95;;;26.05;;
62990;SDS011;49084;48.204;16.202;2022-11-15T09:51:59;104.38;;;29.27;;
62990;SDS011;49084;48.204;16.202;2022-11-15T09:54:34;114.70;;;29.10;;
62990;SDS011;49084;48.204;16.202;2022-11-15T09:57:21;95.18;;;28.25;;
62990;SDS011;49084;48.204;16.202;2022-11-15T10:00:15;94.32;;;26.58;;
62990;SDS011;49084;48.204;16.202;2022-11-15T10:05:19;90.88;;;26.23;;
62990;SDS011;49084;48.204;16.202;2022-11-15T10:13:20;95.97;;;28.55;;
62990;SDS011;49084;48.204;16.202;2022-11-15T10:15:49;102.20;;;27.48;;
62990;SDS011;49084;48.204;16.202;2022-11-15T10:21:17;97.50;;;27.98;;
62990;SDS011;49084;48.204;16.202;2022-11-15T10:23:48;103.38;;;30.67;;
62990;SDS011;49084;48.204;16.202;2022-11-15T10:26:16;99.35;;;28.77;;
62990;SDS011;49084;48.204;16.202;2022-11-15T10:28:42;91.85;;;26.70;;
62990;SDS011;49084;48.204;16.202;2022-11-15T10:31:21;96.68;;;28.27;;
62990;SDS011;49084;48.204;16.202;2022-11-15T10:33:50;86.13;;;27.75;;
62990;SDS011;49084;48.204;16.202;2022-11-15T10:36:22;92.10;;;28.70;;
62990;SDS011;49084;48.204;16.202;2022-11-15T10:38:52;86.30;;;27.65;;
62990;SDS011;49084;48.204;16.202;2022-11-15T10:44:08;92.68;;;29.83;;
62990;SDS011;49084;48.204;16.202;2022-11-15T10:46:38;88.97;;;28.25;;
62990;SDS011;49084;48.204;16.202;2022-11-15T10:49:13;79.85;;;27.63;;
62990;SDS011;49084;48.204;16.202;2022-11-15T10:51:42;88.68;;;27.77;;
62990;SDS011;49084;48.204;16.202;2022-11-15T10:54:38;68.35;;;25.85;;
62990;SDS011;49084;48.204;16.202;2022-11-15T10:57:20;77.97;;;27.45;;
62990;SDS011;49084;48.204;16.202;2022-11-15T10:59:49;82.53;;;27.13;;
62990;SDS011;49084;48.204;16.202;2022-11-15T11:04:54;96.00;;;28.85;;
62990;SDS011;49084;48.204;16.202;2022-11-15T11:07:21;94.43;;;28.80;;
62990;SDS011;49084;48.204;16.202;2022-11-15T11:09:56;100.50;;;29.63;;
62990;SDS011;49084;48.204;16.202;2022-11-15T11:12:30;97.68;;;29.48;;
62990;SDS011;49084;48.204;16.202;2022-11-15T11:14:58;86.18;;;28.98;;
62990;SDS011;49084;48.204;16.202;2022-11-15T11:31:03;81.32;;;28.75;;
62990;SDS011;49084;48.204;16.202;2022-11-15T11:42:17;77.32;;;25.25;;
62990;SDS011;49084;48.204;16.202;2022-11-15T11:47:40;70.68;;;25.20;;
62990;SDS011;49084;48.204;16.202;2022-11-15T11:50:34;78.68;;;26.73;;
62990;SDS011;49084;48.204;16.202;2022-11-15T11:53:15;70.40;;;25.33;;
62990;SDS011;49084;48.204;16.202;2022-11-15T11:55:52;70.30;;;24.00;;
62990;SDS011;49084;48.204;16.202;2022-11-15T11:58:43;80.38;;;25.50;;
62990;SDS011;49084;48.204;16.202;2022-11-15T12:03:39;75.25;;;24.40;;
62990;SDS011;49084;48.204;16.202;2022-11-15T12:11:37;83.15;;;27.73;;
62990;SDS011;49084;48.204;16.202;2022-11-15T12:17:10;81.35;;;27.27;;
62990;SDS011;49084;48.204;16.202;2022-11-15T12:19:37;80.10;;;26.55;;
62990;SDS011;49084;48.204;16.202;2022-11-15T12:22:13;87.53;;;28.83;;
62990;SDS011;49084;48.204;16.202;2022-11-15T12:27:23;84.25;;;28.55;;
62990;SDS011;49084;48.204;16.202;2022-11-15T12:30:18;72.53;;;28.23;;
62990;SDS011;49084;48.204;16.202;2022-11-15T12:32:50;89.03;;;28.42;;
62990;SDS011;49084;48.204;16.202;2022-11-15T12:35:25;76.32;;;26.38;;
62990;SDS011;49084;48.204;16.202;2022-11-15T12:38:03;80.00;;;28.70;;
62990;SDS011;49084;48.204;16.202;2022-11-15T12:40:39;85.18;;;29.55;;
62990;SDS011;49084;48.204;16.202;2022-11-15T12:43:39;99.65;;;31.90;;
62990;SDS011;49084;48.204;16.202;2022-11-15T12:46:13;103.45;;;32.90;;
62990;SDS011;49084;48.204;16.202;2022-11-15T12:51:14;93.00;;;31.85;;
62990;SDS011;49084;48.204;16.202;2022-11-15T12:53:40;97.38;;;34.17;;
62990;SDS011;49084;48.204;16.202;2022-11-15T12:59:06;98.72;;;33.20;;
62990;SDS011;49084;48.204;16.202;2022-11-15T13:06:53;92.45;;;30.40;;
62990;SDS011;49084;48.204;16.202;2022-11-15T13:17:27;84.18;;;30.27;;
62990;SDS011;49084;48.204;16.202;2022-11-15T13:28:02;95.63;;;32.83;;
62990;SDS011;49084;48.204;16.202;2022-11-15T13:36:02;103.30;;;34.63;;
62990;SDS011;49084;48.204;16.202;2022-11-15T13:38:32;107.53;;;34.80;;
62990;SDS011;49084;48.204;16.202;2022-11-15T13:41:00;105.53;;;33.75;;
62990;SDS011;49084;48.204;16.202;2022-11-15T13:43:42;97.13;;;34.15;;
62990;SDS011;49084;48.204;16.202;2022-11-15T13:48:38;99.22;;;34.53;;
62990;SDS011;49084;48.204;16.202;2022-11-15T13:53:46;113.50;;;37.67;;
62990;SDS011;49084;48.204;16.202;2022-11-15T13:56:19;108.97;;;37.67;;
62990;SDS011;49084;48.204;16.202;2022-11-15T13:58:45;107.88;;;36.83;;
62990;SDS011;49084;48.204;16.202;2022-11-15T14:01:16;123.07;;;38.22;;
62990;SDS011;49084;48.204;16.202;2022-11-15T14:03:52;115.00;;;36.95;;
62990;SDS011;49084;48.204;16.202;2022-11-15T14:06:21;111.80;;;37.67;;
62990;SDS011;49084;48.204;16.202;2022-11-15T14:09:16;115.90;;;38.13;;
62990;SDS011;49084;48.204;16.202;2022-11-15T14:11:55;112.63;;;37.42;;
62990;SDS011;49084;48.204;16.202;2022-11-15T14:14:22;121.97;;;39.63;;
62990;SDS011;49084;48.204;16.202;2022-11-15T14:16:50;116.82;;;39.25;;
62990;SDS011;49084;48.204;16.202;2022-11-15T14:25:02;112.50;;;40.50;;
62990;SDS011;49084;48.204;16.202;2022-11-15T14:27:38;110.57;;;37.10;;
62990;SDS011;49084;48.204;16.202;2022-11-15T14:30:04;108.15;;;36.47;;
62990;SDS011;49084;48.204;16.202;2022-11-15T14:32:41;110.32;;;38.75;;
62990;SDS011;49084;48.204;16.202;2022-11-15T14:35:17;108.93;;;37.13;;
62990;SDS011;49084;48.204;16.202;2022-11-15T14:37:45;101.47;;;36.45;;
62990;SDS011;49084;48.204;16.202;2022-11-15T14:40:18;121.38;;;37.92;;
62990;SDS011;49084;48.204;16.202;2022-11-15T14:42:46;110.57;;;37.15;;
62990;SDS011;49084;48.204;16.202;2022-11-15T14:45:15;112.82;;;35.88;;
62990;SDS011;49084;48.204;16.202;2022-11-15T14:47:45;108.85;;;36.08;;
62990;SDS011;49084;48.204;16.202;2022-11-15T14:50:18;101.47;;;34.53;;
62990;SDS011;49084;48.204;16.202;2022-11-15T14:52:45;93.55;;;34.85;;
62990;SDS011;49084;48.204;16.202;2022-11-15T14:55:25;99.38;;;35.78;;
62990;SDS011;49084;48.204;16.202;2022-11-15T14:57:56;93.05;;;33.83;;
62990;SDS011;49084;48.204;16.202;2022-11-15T15:00:23;89.35;;;33.95;;
62990;SDS011;49084;48.204;16.202;2022-11-15T15:02:50;95.53;;;33.92;;
62990;SDS011;49084;48.204;16.202;2022-11-15T15:05:19;86.88;;;32.35;;
62990;SDS011;49084;48.204;16.202;2022-11-15T15:07:48;91.68;;;32.47;;
62990;SDS011;49084;48.204;16.202;2022-11-15T15:10:15;90.75;;;34.35;;
62990;SDS011;49084;48.204;16.202;2022-11-15T15:12:41;98.13;;;33.83;;
62990;SDS011;49084;48.204;16.202;2022-11-15T15:15:14;84.13;;;32.25;;
62990;SDS011;49084;48.204;16.202;2022-11-15T15:17:41;84.13;;;31.27;;
62990;SDS011;49084;48.204;16.202;2022-11-15T15:20:07;94.35;;;32.75;;
62990;SDS011;49084;48.204;16.202;2022-11-15T15:22:34;89.63;;;34.30;;
62990;SDS011;49084;48.204;16.202;2022-11-15T15:25:00;92.00;;;33.30;;
62990;SDS011;49084;48.204;16.202;2022-11-15T15:27:25;92.72;;;33.20;;
62990;SDS011;49084;48.204;16.202;2022-11-15T15:29:51;91.50;;;33.25;;
62990;SDS011;49084;48.204;16.202;2022-11-15T15:32:17;90.25;;;33.90;;
62990;SDS011;49084;48.204;16.202;2022-11-15T15:34:42;88.18;;;33.08;;
62990;SDS011;49084;48.204;16.202;2022-11-15T15:37:09;90.45;;;34.80;;
62990;SDS011;49084;48.204;16.202;2022-11-15T15:39:44;95.97;;;34.88;;
62990;SDS011;49084;48.204;16.202;2022-11-15T15:42:10;97.72;;;35.78;;
62990;SDS011;49084;48.204;16.202;2022-11-15T15:44:35;106.05;;;37.58;;
62990;SDS011;49084;48.204;16.202;2022-11-15T15:47:01;99.55;;;36.35;;
62990;SDS011;49084;48.204;16.202;2022-11-15T15:49:26;99.32;;;36.90;;
62990;SDS011;49084;48.204;16.202;2022-11-15T15:51:52;99.85;;;36.60;;
62990;SDS011;49084;48.204;16.202;2022-11-15T15:54:18;101.15;;;38.92;;
62990;SDS011;49084;48.204;16.202;2022-11-15T15:56:43;103.25;;;38.42;;
62990;SDS011;49084;48.204;16.202;2022-11-15T15:59:09;106.53;;;40.28;;
62990;SDS011;49084;48.204;16.202;2022-11-15T16:01:34;101.55;;;37.30;;
62990;SDS011;49084;48.204;16.202;2022-11-15T16:04:00;104.88;;;39.30;;
62990;SDS011;49084;48.204;16.202;2022-11-15T16:06:33;109.28;;;40.75;;
62990;SDS011;49084;48.204;16.202;2022-11-15T16:09:01;101.93;;;41.40;;
62990;SDS011;49084;48.204;16.202;2022-11-15T16:11:28;107.55;;;40.38;;
62990;SDS011;49084;48.204;16.202;2022-11-15T16:13:53;105.00;;;40.80;;
62990;SDS011;49084;48.204;16.202;2022-11-15T16:16:19;106.85;;;40.15;;
62990;SDS011;49084;48.204;16.202;2022-11-15T16:18:47;115.57;;;42.60;;
62990;SDS011;49084;48.204;16.202;2022-11-15T16:21:13;120.53;;;44.00;;
62990;SDS011;49084;48.204;16.202;2022-11-15T16:23:38;125.55;;;44.63;;
62990;SDS011;49084;48.204;16.202;2022-11-15T16:26:20;115.22;;;43.88;;
62990;SDS011;49084;48.204;16.202;2022-11-15T16:28:50;131.73;;;45.92;;
62990;SDS011;49084;48.204;16.202;2022-11-15T16:31:17;126.63;;;46.97;;